Главная страница
METAR-TAF:

METAR-TAF

Аэропорты :

Морони, Коморские острова

широта: 11-32S, долгота: 043-16E, высота над уровнем моря: 29 м

Текущие метеонаблюдения

Эта сводка был подготовлена 22 минут назад, в 21:00 UTC
Ветер 5 Узел от юго-восточный
Температура 26°C
Влажность 84%
Давление 1014 hPa
Видимость 10 км и более
небольшая облачность на высоте 2000 фута

METAR: FMCH 122100Z 14005KT 9999 FEW020 26/23 Q1014 NOSIG

Время: 00:22 (21:22 UTC)

Прогноз

Эта сводка был подготовлена 4 часа и 22 минут назад, в 17:00 UTC
Прогноз действительный с 12-го 18 UTC до 13-го 24 UTC
Ветер 3 Узел от восточный
Видимость 10 км и более
небольшая облачность на высоте 2000 фута
Отдельные облака на высоте 2800 фута
изменения
С 13-го 05 UTC до 13-го 07 UTC
Ветер 10 Узел от западный
изменения
С 13-го 16 UTC до 13-го 18 UTC
Ветер 3 Узел переменных направлений

TAF: FMCH 121700Z 1218/1324 10003KT 9999 FEW020 SCT028 BECMG 1305/1307 27010KT BECMG 1316/1318 VRB03KT

Метеонаблюдения и прогнозы для более 4000 аэропортов (сводки METAR и TAF).

Имеющиеся станции представлены на карте желтыми и красными точками.

Чтобы увидеть название станции, наведите на нее мышь.

Затем щелкните, чтобы увидеть метеонаблюдения и метеопрогнозы.

Управление картой: чтобы увеличить масштаб, щелкните зеленые кнопки с черным крестиком; чтобы уменьшить масштаб, щелкните зеленую кнопку с тире; для просмотра соседних карт щелкайте зеленые стрелки.


METAR-TAF: